CLNM LIRZ-LIRF
Flight info
| Callsign | CLNM |
|---|---|
| Flight time | N/A |
| Altitude | 19000 |
| Route | GITOD L865 RITEB |
| Aircraft | CL60/M-SBDE1E2E3FGHIJ4J5J7M3RWXYZ/LB1V1D1 |
Departure
| Time | 2026-04-26 13:35 |
|---|---|
| Airport | Perugia San Francesco d'Assisi – Umbria International Airport (LIRZ) |
Arrival
| Time | N/A |
|---|---|
| Airport | Rome–Fiumicino Leonardo da Vinci International Airport (LIRF) |
| Time | Latitude | Longitude | Altitude | Speed | Heading |
|---|---|---|---|---|---|
| 2026-04-26 13:13 | 43.09347 | 12.50502 | 698 ft | 0 kts | 159° |
| 2026-04-26 13:31 | 43.09352 | 12.50500 | 698 ft | 2 kts | 159° |
| 2026-04-26 13:32 | 43.09378 | 12.50486 | 698 ft | 3 kts | 159° |
| 2026-04-26 13:32 | 43.09382 | 12.50502 | 698 ft | 8 kts | 61° |
| 2026-04-26 13:32 | 43.09331 | 12.50576 | 698 ft | 15 kts | 150° |
| 2026-04-26 13:32 | 43.09225 | 12.50664 | 697 ft | 19 kts | 147° |
| 2026-04-26 13:33 | 43.09106 | 12.50786 | 696 ft | 23 kts | 128° |
| 2026-04-26 13:33 | 43.09047 | 12.50940 | 696 ft | 12 kts | 102° |
| 2026-04-26 13:33 | 43.09037 | 12.51001 | 696 ft | 4 kts | 105° |
| 2026-04-26 13:33 | 43.09034 | 12.51013 | 696 ft | 0 kts | 105° |
| 2026-04-26 13:34 | 43.09027 | 12.51047 | 696 ft | 11 kts | 108° |
| 2026-04-26 13:34 | 43.09024 | 12.51123 | 696 ft | 6 kts | 41° |
| 2026-04-26 13:34 | 43.09207 | 12.51187 | 698 ft | 75 kts | 13° |
| 2026-04-26 13:34 | 43.09700 | 12.51363 | 705 ft | 144 kts | 13° |
| 2026-04-26 13:35 | 43.11234 | 12.51869 | 1667 ft | 188 kts | 11° |
| 2026-04-26 13:35 | 43.12581 | 12.52254 | 2607 ft | 209 kts | 9° |
| 2026-04-26 13:35 | 43.13985 | 12.52672 | 3561 ft | 211 kts | 12° |
| 2026-04-26 13:35 | 43.15401 | 12.52579 | 4382 ft | 214 kts | 336° |
| 2026-04-26 13:36 | 43.16495 | 12.51206 | 5157 ft | 221 kts | 297° |
| 2026-04-26 13:36 | 43.16665 | 12.49163 | 5833 ft | 225 kts | 257° |
| 2026-04-26 13:36 | 43.16068 | 12.47228 | 6655 ft | 224 kts | 244° |
| 2026-04-26 13:36 | 43.15379 | 12.45305 | 7541 ft | 241 kts | 245° |
| 2026-04-26 13:37 | 43.14593 | 12.43092 | 8253 ft | 275 kts | 245° |
| 2026-04-26 13:37 | 43.13760 | 12.40670 | 9242 ft | 293 kts | 246° |
| 2026-04-26 13:37 | 43.12925 | 12.38170 | 10655 ft | 299 kts | 246° |
| 2026-04-26 13:37 | 43.12058 | 12.35571 | 11984 ft | 309 kts | 246° |
| 2026-04-26 13:38 | 43.11216 | 12.32804 | 12950 ft | 328 kts | 255° |
| 2026-04-26 13:38 | 43.11126 | 12.29721 | 14031 ft | 338 kts | 280° |
| 2026-04-26 13:38 | 43.11617 | 12.26551 | 15152 ft | 346 kts | 283° |
| 2026-04-26 13:38 | 43.11975 | 12.23309 | 16296 ft | 353 kts | 271° |
| 2026-04-26 13:39 | 43.11617 | 12.19994 | 17364 ft | 362 kts | 255° |
| 2026-04-26 13:39 | 43.10532 | 12.16850 | 18353 ft | 373 kts | 238° |
| 2026-04-26 13:39 | 43.08743 | 12.14163 | 18926 ft | 389 kts | 220° |
| 2026-04-26 13:39 | 43.06343 | 12.12409 | 19127 ft | 394 kts | 198° |
| 2026-04-26 13:40 | 43.03576 | 12.12022 | 19139 ft | 411 kts | 176° |
| 2026-04-26 13:40 | 43.00656 | 12.12393 | 19116 ft | 437 kts | 174° |
| 2026-04-26 13:40 | 42.97528 | 12.12805 | 19126 ft | 459 kts | 174° |
| 2026-04-26 13:40 | 42.96331 | 12.12960 | 19127 ft | 463 kts | 174° |